Time;durP1;ratioP1;P1;durP2;ratioP2;P2;SDS_P1;SDS_P2;PMS_P1;PMS_P2;Temp;Humidity;BMP_temperature;BMP_pressure;BME280_temperature;BME280_humidity;BME280_pressure;Samples;Min_cycle;Max_cycle;Signal;HPM_P1;HPM_P2
2022/07/19 00:01:07;;;;;;;6.40;6.10;;;;;;;19.89;69.19;101288.09;6069251;23;20043;-72
2022/07/19 00:03:34;;;;;;;6.15;5.85;;;;;;;19.70;70.00;101268.25;6110330;23;20018;-71
2022/07/19 00:06:00;;;;;;;5.90;5.60;;;;;;;20.09;69.28;101319.25;6071109;23;20032;-72
2022/07/19 00:08:27;;;;;;;7.15;6.85;;;;;;;20.11;68.71;101319.13;6110195;23;20088;-71
2022/07/19 00:10:53;;;;;;;5.80;5.50;;;;;;;19.48;68.92;101234.56;6074524;23;20038;-71
2022/07/19 00:13:23;;;;;;;7.10;6.75;;;;;;;19.78;69.80;101302.28;6108014;23;20204;-71
2022/07/19 00:15:51;;;;;;;5.70;5.40;;;;;;;19.50;69.61;101245.06;6082241;23;20046;-71
2022/07/19 00:18:18;;;;;;;6.15;5.85;;;;;;;19.41;69.96;101245.81;6119429;23;20032;-71
2022/07/19 00:20:44;;;;;;;5.95;5.65;;;;;;;19.41;69.88;101237.84;6081733;23;20010;-72
2022/07/19 00:23:11;;;;;;;6.18;5.88;;;;;;;19.79;70.07;101301.31;6105163;23;20031;-71
2022/07/19 00:25:37;;;;;;;5.55;5.32;;;;;;;19.52;70.68;101259.97;6071960;23;20799;-72
2022/07/19 00:28:04;;;;;;;5.93;5.63;;;;;;;19.36;70.88;101235.53;6113330;23;20021;-73
2022/07/19 00:30:31;;;;;;;6.10;5.80;;;;;;;19.33;70.44;101231.31;6069063;23;20025;-71
2022/07/19 00:32:57;;;;;;;24.17;22.98;;;;;;;18.27;71.00;101068.69;5988425;23;20292;-73
2022/07/19 00:35:23;;;;;;;7.15;6.80;;;;;;;19.64;71.11;101294.53;5973963;23;20026;-70
2022/07/19 00:37:50;;;;;;;5.90;5.60;;;;;;;19.66;71.26;101295.25;6110478;23;20269;-71
2022/07/19 00:40:22;;;;;;;6.20;5.90;;;;;;;19.59;70.81;101286.91;6079717;23;20388;-71
2022/07/19 00:42:51;;;;;;;5.50;5.30;;;;;;;19.47;70.70;101275.44;6102871;23;20101;-72
2022/07/19 00:45:17;;;;;;;7.45;6.85;;;;;;;18.75;71.00;101164.13;6080939;23;20028;-72
2022/07/19 00:47:43;;;;;;;5.40;5.20;;;;;;;19.52;71.08;101285.72;6111974;23;20020;-71
2022/07/19 00:50:10;;;;;;;5.68;5.40;;;;;;;19.49;70.82;101289.47;6078135;23;20328;-72
2022/07/19 00:52:39;;;;;;;5.80;5.50;;;;;;;19.36;71.13;101275.44;6109788;23;20036;-71
2022/07/19 00:55:09;;;;;;;6.05;5.75;;;;;;;19.07;72.16;101230.75;6082712;23;20030;-71
2022/07/19 00:57:38;;;;;;;5.45;5.25;;;;;;;19.24;73.48;101266.63;6102970;23;20084;-72
2022/07/19 01:00:07;;;;;;;5.60;5.30;;;;;;;19.32;74.65;101282.00;6076086;23;20030;-73
2022/07/19 01:02:35;;;;;;;6.72;6.25;;;;;;;19.15;74.88;101275.38;6107095;23;20020;-72
2022/07/19 01:05:02;;;;;;;5.88;5.47;;;;;;;19.18;74.97;101284.91;6067512;23;20042;-71
2022/07/19 01:07:29;;;;;;;5.90;5.60;;;;;;;19.14;74.09;101284.28;6115897;23;20017;-73
2022/07/19 01:09:55;;;;;;;5.72;5.43;;;;;;;18.76;74.38;101232.28;6071401;23;20032;-72
2022/07/19 01:12:22;;;;;;;7.22;6.93;;;;;;;19.03;74.38;101273.69;6118607;23;20506;-71
2022/07/19 01:14:54;;;;;;;6.40;6.00;;;;;;;18.77;74.19;101225.16;6085444;23;20017;-71
2022/07/19 01:17:20;;;;;;;7.50;7.10;;;;;;;19.01;74.04;101270.28;6107602;23;20494;-70
2022/07/19 01:19:49;;;;;;;6.55;6.25;;;;;;;18.67;73.77;101207.25;6085154;23;20063;-70
2022/07/19 01:22:16;;;;;;;6.65;6.25;;;;;;;18.51;72.91;101169.56;6107542;23;20411;-72
2022/07/19 01:24:42;;;;;;;6.00;5.70;;;;;;;19.18;72.11;101268.94;6083699;23;20009;-70
2022/07/19 01:27:09;;;;;;;5.97;5.68;;;;;;;19.22;71.82;101260.59;6101305;23;20112;-71
2022/07/19 01:29:36;;;;;;;5.90;5.60;;;;;;;19.26;71.26;101266.50;6085025;23;20364;-71
2022/07/19 01:32:04;;;;;;;5.38;5.18;;;;;;;19.29;70.79;101266.28;6102391;23;20371;-72
2022/07/19 01:34:31;;;;;;;6.40;6.10;;;;;;;19.18;70.63;101240.50;6079245;23;20031;-72
2022/07/19 01:36:57;;;;;;;5.60;5.30;;;;;;;19.07;70.89;101214.78;6085708;23;20327;-71
2022/07/19 01:39:24;;;;;;;5.88;5.57;;;;;;;18.82;70.37;101177.78;6087550;23;20024;-72
2022/07/19 01:41:50;;;;;;;5.90;5.60;;;;;;;18.85;70.40;101189.03;6115038;23;20013;-71
2022/07/19 01:44:16;;;;;;;6.55;6.25;;;;;;;19.05;70.75;101227.34;6081478;23;20014;-70
2022/07/19 01:46:43;;;;;;;5.30;5.10;;;;;;;19.02;71.12;101210.78;6110799;23;20586;-70
2022/07/19 01:49:09;;;;;;;6.00;5.70;;;;;;;18.89;71.33;101194.97;6081629;23;20260;-72
2022/07/19 01:51:36;;;;;;;5.40;5.20;;;;;;;18.86;70.79;101179.25;6115012;23;20013;-72
2022/07/19 01:54:02;;;;;;;5.88;5.57;;;;;;;18.83;71.02;101171.53;6085471;23;20045;-71
2022/07/19 01:56:29;;;;;;;6.75;6.25;;;;;;;18.97;70.30;101181.91;6100069;23;20340;-71
2022/07/19 01:58:55;;;;;;;5.82;5.53;;;;;;;18.77;69.81;101145.38;6082072;23;20001;-72
2022/07/19 02:01:22;;;;;;;6.80;6.50;;;;;;;19.35;69.88;101233.00;6097287;23;20028;-72
2022/07/19 02:03:48;;;;;;;6.20;5.90;;;;;;;18.84;70.49;101159.91;6087243;23;20309;-71
2022/07/19 02:06:15;;;;;;;6.10;5.72;;;;;;;19.23;71.14;101229.53;6102222;23;20022;-72
2022/07/19 02:08:42;;;;;;;5.40;5.20;;;;;;;19.04;70.68;101214.16;6082161;23;20021;-72
2022/07/19 02:13:53;;;;;;;5.90;5.60;;;;;;;18.99;70.69;101206.56;6076937;23;20006;-72
2022/07/19 02:16:20;;;;;;;7.90;7.45;;;;;;;17.85;70.53;101017.97;6100822;23;20271;-72
2022/07/19 02:18:46;;;;;;;6.05;5.55;;;;;;;19.09;70.54;101227.97;6087849;23;20018;-72
2022/07/19 02:21:12;;;;;;;6.35;5.95;;;;;;;18.83;70.64;101192.78;6103791;23;20032;-71
2022/07/19 02:23:39;;;;;;;5.50;5.20;;;;;;;18.76;70.79;101179.09;6081512;23;20122;-72
2022/07/19 02:26:05;;;;;;;5.70;5.40;;;;;;;18.71;70.96;101181.28;6098531;23;20030;-72
2022/07/19 02:28:32;;;;;;;6.35;5.95;;;;;;;18.98;71.09;101228.78;6083896;23;20490;-72
2022/07/19 02:30:58;;;;;;;6.13;5.82;;;;;;;19.00;70.70;101234.84;6101839;23;20029;-71
2022/07/19 02:33:25;;;;;;;6.65;6.35;;;;;;;18.91;71.35;101214.31;6075992;23;20032;-71
2022/07/19 02:35:51;;;;;;;5.60;5.35;;;;;;;18.75;71.83;101190.72;6113288;23;20017;-70
2022/07/19 02:38:18;;;;;;;7.32;6.93;;;;;;;18.92;71.37;101221.31;6082863;23;20090;-74
2022/07/19 02:40:44;;;;;;;5.82;5.53;;;;;;;18.88;71.64;101226.03;6110309;23;20016;-72
2022/07/19 02:43:11;;;;;;;5.95;5.65;;;;;;;18.27;71.94;101141.25;6080526;23;20137;-72
2022/07/19 02:45:37;;;;;;;5.97;5.68;;;;;;;18.54;72.23;101180.81;6115302;23;20021;-69
2022/07/19 02:48:04;;;;;;;5.68;5.38;;;;;;;18.80;72.15;101240.91;6089136;23;20097;-71
2022/07/19 02:50:32;;;;;;;5.70;5.40;;;;;;;18.78;71.81;101235.66;6108573;23;20303;-72
2022/07/19 02:52:58;;;;;;;5.60;5.30;;;;;;;18.76;72.08;101232.28;6085499;23;20265;-70
2022/07/19 02:55:25;;;;;;;7.10;6.72;;;;;;;18.72;71.39;101229.03;6108052;23;20020;-72
2022/07/19 02:57:51;;;;;;;5.72;5.43;;;;;;;18.73;71.47;101233.38;6081515;23;20439;-71
2022/07/19 03:00:18;;;;;;;7.15;6.80;;;;;;;18.32;71.45;101168.34;6105601;23;20029;-71
2022/07/19 03:02:44;;;;;;;5.53;5.22;;;;;;;18.33;71.17;101167.34;6076252;23;20018;-71
2022/07/19 03:05:11;;;;;;;5.88;5.57;;;;;;;18.67;72.15;101215.22;6092816;23;20038;-70
2022/07/19 03:07:37;;;;;;;5.40;5.10;;;;;;;18.40;71.69;101181.03;6081852;23;20021;-72
2022/07/19 03:10:05;;;;;;;5.45;5.15;;;;;;;17.79;72.30;101075.00;6110083;23;20022;-73
2022/07/19 03:12:32;;;;;;;5.90;5.60;;;;;;;18.71;72.41;101235.28;6068643;23;20013;-71
2022/07/19 03:14:58;;;;;;;5.85;5.55;;;;;;;18.68;72.77;101235.56;6114527;23;20055;-72
2022/07/19 03:17:25;;;;;;;7.20;6.82;;;;;;;18.26;73.19;101162.63;6079433;23;20034;-73
2022/07/19 03:19:51;;;;;;;5.65;5.35;;;;;;;18.63;72.83;101235.06;6114689;23;20032;-71
2022/07/19 03:22:17;;;;;;;6.30;6.00;;;;;;;18.62;72.77;101244.00;6078485;23;20364;-72
2022/07/19 03:24:44;;;;;;;5.60;5.30;;;;;;;18.63;72.15;101247.50;6110483;23;20017;-72
2022/07/19 03:27:10;;;;;;;5.82;5.53;;;;;;;18.52;72.09;101243.00;6083979;23;20522;-73
2022/07/19 03:29:37;;;;;;;5.38;5.07;;;;;;;18.63;71.92;101258.13;6117017;23;21568;-70
2022/07/19 03:32:03;;;;;;;5.78;5.47;;;;;;;18.62;71.78;101246.66;6084717;23;20045;-72
2022/07/19 03:34:30;;;;;;;5.97;5.68;;;;;;;17.57;71.30;101072.31;6104644;23;20475;-73
2022/07/19 03:36:56;;;;;;;6.22;5.82;;;;;;;18.56;72.05;101222.34;6081451;23;20311;-72
2022/07/19 03:39:23;;;;;;;6.50;6.20;;;;;;;18.53;71.69;101216.31;6109167;23;20246;-73
2022/07/19 03:41:49;;;;;;;5.78;5.47;;;;;;;18.60;71.90;101229.13;6078626;23;20017;-71
2022/07/19 03:44:22;;;;;;;6.75;6.45;;;;;;;18.62;71.35;101235.16;6099406;23;20017;-71
2022/07/19 03:46:48;;;;;;;5.60;5.30;;;;;;;18.54;71.07;101220.66;6081095;23;20494;-72
2022/07/19 03:49:14;;;;;;;6.35;6.07;;;;;;;18.37;70.73;101193.72;6122126;23;20022;-73
2022/07/19 03:51:41;;;;;;;6.10;5.80;;;;;;;18.68;70.26;101242.66;6077564;23;20081;-72
2022/07/19 03:54:07;;;;;;;5.80;5.50;;;;;;;18.76;69.79;101255.38;6114872;23;20552;-72
2022/07/19 03:56:34;;;;;;;5.40;5.20;;;;;;;18.72;69.10;101231.69;6097870;23;20097;-71
2022/07/19 03:59:00;;;;;;;5.40;5.20;;;;;;;18.79;69.73;101261.31;6098965;23;20009;-71
2022/07/19 04:01:26;;;;;;;6.63;6.32;;;;;;;18.56;69.74;101214.38;6069051;23;20085;-70
2022/07/19 04:03:53;;;;;;;5.63;5.32;;;;;;;18.76;69.55;101236.75;6093994;23;20103;-71
2022/07/19 04:06:19;;;;;;;7.65;7.05;;;;;;;18.74;70.02;101232.41;6067004;23;20112;-71
2022/07/19 04:08:46;;;;;;;5.70;5.40;;;;;;;18.79;69.65;101234.72;6095574;23;20020;-71
2022/07/19 04:11:12;;;;;;;5.55;5.25;;;;;;;18.47;69.81;101189.38;6071685;23;20094;-71
2022/07/19 04:13:39;;;;;;;5.63;5.32;;;;;;;17.79;69.50;101066.19;6106382;23;20013;-70
2022/07/19 04:16:05;;;;;;;5.85;5.53;;;;;;;18.89;69.97;101242.84;6069247;23;20034;-71
2022/07/19 04:18:32;;;;;;;5.72;5.50;;;;;;;19.19;68.95;101255.53;6103296;23;20180;-71
2022/07/19 04:20:59;;;;;;;5.50;5.20;;;;;;;19.44;68.14;101251.72;6084099;23;20214;-72
2022/07/19 04:23:25;;;;;;;7.07;6.68;;;;;;;18.61;66.38;101066.84;6100632;23;20058;-71
2022/07/19 04:25:52;;;;;;;5.97;5.68;;;;;;;19.90;65.01;101193.88;6074700;23;20024;-71
2022/07/19 04:28:19;;;;;;;6.88;6.47;;;;;;;20.72;63.62;101271.31;6110079;23;20028;-72
2022/07/19 04:30:45;;;;;;;5.40;5.20;;;;;;;20.85;61.16;101257.78;6078244;23;20026;-72
2022/07/19 04:33:14;;;;;;;5.97;5.68;;;;;;;21.08;60.28;101274.44;6099469;23;20053;-70
2022/07/19 04:35:41;;;;;;;5.68;5.38;;;;;;;21.35;59.07;101265.00;6076281;23;20332;-70
2022/07/19 04:38:08;;;;;;;5.50;5.30;;;;;;;21.46;58.21;101250.69;6107893;23;20024;-72
2022/07/19 04:40:34;;;;;;;5.90;5.60;;;;;;;20.47;58.58;101088.59;6067334;23;20021;-71
2022/07/19 04:43:01;;;;;;;5.97;5.50;;;;;;;21.58;57.81;101246.94;6105296;23;20022;-71
2022/07/19 04:45:28;;;;;;;7.40;7.00;;;;;;;20.86;57.09;101070.03;6074183;23;20604;-71
2022/07/19 04:47:55;;;;;;;5.45;5.25;;;;;;;22.32;55.39;101242.03;6108850;23;20018;-71
2022/07/19 04:50:21;;;;;;;7.25;6.82;;;;;;;22.54;54.28;101239.03;6082294;23;20010;-71
2022/07/19 04:52:48;;;;;;;5.80;5.50;;;;;;;20.96;53.35;100990.00;6104880;23;20041;-72
2022/07/19 04:55:14;;;;;;;6.78;6.47;;;;;;;22.12;52.59;101183.22;6100723;23;20028;-71
2022/07/19 04:57:41;;;;;;;6.63;6.15;;;;;;;21.52;52.43;101041.84;6128371;23;20033;-72
2022/07/19 05:00:10;;;;;;;6.00;5.47;;;;;;;21.71;52.13;101065.84;6071948;23;20026;-71
2022/07/19 05:02:36;;;;;;;6.00;5.70;;;;;;;22.34;52.51;101184.75;6099070;23;20368;-72
2022/07/19 05:05:04;;;;;;;6.40;5.90;;;;;;;22.84;52.00;101223.72;6075196;23;20030;-70
2022/07/19 05:07:31;;;;;;;6.32;6.03;;;;;;;22.01;51.73;101060.41;6100009;23;20525;-72
2022/07/19 05:09:57;;;;;;;6.30;5.90;;;;;;;23.12;50.83;101197.00;6080381;23;20041;-72
2022/07/19 05:12:27;;;;;;;6.07;5.78;;;;;;;23.87;49.55;101225.25;6098642;23;20367;-71
2022/07/19 05:14:53;;;;;;;5.97;5.68;;;;;;;24.53;48.28;101230.28;6073575;23;20527;-70
2022/07/19 05:17:19;;;;;;;6.93;6.63;;;;;;;23.69;47.31;101068.94;6106109;23;20017;-72
2022/07/19 05:19:46;;;;;;;5.82;5.53;;;;;;;24.37;46.60;101175.47;6083644;23;20014;-72
2022/07/19 05:22:12;;;;;;;6.50;6.20;;;;;;;24.41;46.65;101206.34;6106363;23;20592;-72
2022/07/19 05:24:39;;;;;;;6.25;5.88;;;;;;;24.12;47.59;101216.56;6078598;23;20493;-71
2022/07/19 05:27:05;;;;;;;6.10;5.80;;;;;;;24.45;47.04;101201.50;6101720;23;20448;-72
2022/07/19 05:29:32;;;;;;;6.82;6.43;;;;;;;24.88;46.10;101200.59;6076403;23;20077;-72
2022/07/19 05:31:58;;;;;;;6.00;5.70;;;;;;;24.50;46.82;101193.88;6105857;23;20069;-72
2022/07/19 05:34:24;;;;;;;7.30;6.90;;;;;;;25.11;45.26;101217.97;6075497;23;20046;-72
2022/07/19 05:36:51;;;;;;;6.00;5.70;;;;;;;24.55;45.35;101113.72;6084808;23;20149;-70
2022/07/19 05:39:17;;;;;;;6.95;6.55;;;;;;;25.01;45.77;101159.00;6069723;23;20092;-73
2022/07/19 05:41:44;;;;;;;5.97;5.68;;;;;;;25.81;44.71;101191.56;6108449;23;20092;-72
2022/07/19 05:44:11;;;;;;;5.93;5.63;;;;;;;24.45;43.26;101024.44;6076583;23;20069;-72
2022/07/19 05:46:40;;;;;;;5.90;5.60;;;;;;;26.20;42.25;101187.38;6108092;23;20029;-72
2022/07/19 05:49:10;;;;;;;6.00;5.70;;;;;;;26.93;41.41;101213.28;6093114;23;20052;-73
2022/07/19 05:51:37;;;;;;;6.20;5.90;;;;;;;25.94;39.62;101058.47;6112812;23;20022;-72
2022/07/19 05:54:04;;;;;;;6.00;5.70;;;;;;;27.31;39.64;101248.50;6086476;23;20408;-73
2022/07/19 05:56:31;;;;;;;6.10;5.80;;;;;;;26.87;39.87;101232.81;6110465;23;20477;-72
2022/07/19 05:58:58;;;;;;;6.10;5.80;;;;;;;27.11;39.64;101223.81;6099930;23;20420;-70
2022/07/19 06:01:25;;;;;;;6.82;6.53;;;;;;;27.00;38.63;101202.63;6111855;23;20692;-72
2022/07/19 06:03:57;;;;;;;5.80;5.50;;;;;;;26.70;39.31;101240.13;6068529;23;20006;-72
2022/07/19 06:06:30;;;;;;;6.97;6.68;;;;;;;27.42;38.35;101229.22;6113416;23;20030;-70
2022/07/19 06:08:58;;;;;;;5.90;5.60;;;;;;;27.56;37.67;101233.00;6064215;23;20010;-71
2022/07/19 06:11:25;;;;;;;6.13;5.82;;;;;;;27.50;37.54;101243.66;6116316;23;20108;-72
2022/07/19 06:13:52;;;;;;;6.10;5.80;;;;;;;27.59;38.11;101185.97;6075043;23;20021;-70
2022/07/19 06:16:19;;;;;;;7.10;6.72;;;;;;;28.20;36.30;101237.25;6105641;23;20513;-73
2022/07/19 06:18:46;;;;;;;5.95;5.65;;;;;;;28.03;36.47;101234.69;6083993;23;20273;-72
2022/07/19 06:21:15;;;;;;;7.15;6.82;;;;;;;28.15;36.14;101245.91;6119065;23;20025;-71
2022/07/19 06:23:42;;;;;;;6.03;5.72;;;;;;;27.82;35.96;101248.84;6098301;23;20084;-71
2022/07/19 06:26:10;;;;;;;6.20;5.90;;;;;;;26.44;36.85;101098.53;6129107;23;20104;-73
2022/07/19 06:28:37;;;;;;;5.68;5.43;;;;;;;27.25;37.14;101247.34;6093295;23;20470;-70
2022/07/19 06:31:10;;;;;;;6.10;5.80;;;;;;;25.80;38.61;101073.44;6119610;23;20166;-71
2022/07/19 06:33:41;;;;;;;6.25;5.95;;;;;;;27.07;37.95;101252.09;6074773;23;20346;-72
2022/07/19 06:36:08;;;;;;;5.95;5.65;;;;;;;26.80;38.65;101256.06;6119194;23;20029;-72
2022/07/19 06:38:35;;;;;;;6.70;6.38;;;;;;;26.60;38.60;101261.88;6082638;23;20316;-71
2022/07/19 06:41:01;;;;;;;6.10;5.80;;;;;;;26.54;39.75;101248.19;6118244;23;20025;-71
2022/07/19 06:43:28;;;;;;;7.65;7.25;;;;;;;26.82;39.14;101238.75;6073754;23;20092;-71
2022/07/19 06:45:55;;;;;;;6.05;5.75;;;;;;;26.51;38.37;101192.03;6121829;23;20032;-71
2022/07/19 06:48:22;;;;;;;7.53;7.13;;;;;;;26.59;37.86;101219.78;6092825;23;20049;-71
2022/07/19 06:50:48;;;;;;;5.70;5.40;;;;;;;26.36;36.95;101229.56;6106023;23;20181;-71
2022/07/19 06:53:15;;;;;;;7.35;6.97;;;;;;;26.50;37.45;101255.78;6071889;23;20337;-71
2022/07/19 06:55:41;;;;;;;5.85;5.55;;;;;;;26.69;38.15;101246.50;6094624;23;20202;-71
2022/07/19 06:58:08;;;;;;;6.30;6.00;;;;;;;25.78;37.58;101081.69;6073699;23;20030;-72
2022/07/19 07:00:36;;;;;;;6.10;5.80;;;;;;;25.67;37.70;101031.78;6104140;23;20017;-71
2022/07/19 07:03:02;;;;;;;6.15;5.85;;;;;;;26.06;36.66;101129.75;6063528;23;20026;-73
2022/07/19 07:05:29;;;;;;;7.28;6.88;;;;;;;26.27;35.71;101127.31;6116760;23;20116;-72
2022/07/19 07:07:55;;;;;;;6.05;5.75;;;;;;;27.06;36.62;101278.22;6080634;23;20059;-72
2022/07/19 07:10:22;;;;;;;7.72;7.28;;;;;;;26.93;36.41;101221.34;6111067;23;20032;-74
2022/07/19 07:12:49;;;;;;;6.15;5.85;;;;;;;27.43;35.73;101281.28;6102082;23;20357;-71
2022/07/19 07:15:15;;;;;;;7.07;6.78;;;;;;;27.53;35.26;101302.63;6111260;23;20442;-70
2022/07/19 07:17:42;;;;;;;6.00;5.70;;;;;;;26.92;35.93;101144.28;6079854;23;20077;-71
2022/07/19 07:20:09;;;;;;;6.00;5.70;;;;;;;27.56;36.22;101226.75;6103851;23;20464;-71
2022/07/19 07:22:36;;;;;;;6.45;6.15;;;;;;;27.73;36.26;101224.81;6081426;23;20252;-74
2022/07/19 07:25:04;;;;;;;6.05;5.70;;;;;;;28.20;35.59;101300.16;6104476;23;20028;-71
2022/07/19 07:27:31;;;;;;;7.20;6.80;;;;;;;28.24;35.02;101282.59;6078770;23;20324;-72
2022/07/19 07:29:58;;;;;;;6.00;5.70;;;;;;;26.91;35.20;101039.41;6124235;23;20009;-72
2022/07/19 07:32:26;;;;;;;7.38;6.88;;;;;;;28.59;34.93;101276.72;6111945;23;20413;-72
2022/07/19 07:34:54;;;;;;;5.93;5.63;;;;;;;28.37;34.55;101237.94;6124959;23;20032;-71
2022/07/19 07:37:20;;;;;;;7.05;6.75;;;;;;;28.37;33.85;101236.06;6088265;23;20109;-71
2022/07/19 07:39:47;;;;;;;6.70;6.30;;;;;;;26.82;34.50;101004.44;6114304;23;20037;-71
2022/07/19 07:42:14;;;;;;;6.65;6.32;;;;;;;28.40;34.76;101257.28;6100245;23;20079;-73
2022/07/19 07:44:41;;;;;;;5.90;5.60;;;;;;;28.76;34.23;101320.59;6125179;23;20247;-72
2022/07/19 07:47:11;;;;;;;6.00;5.70;;;;;;;27.27;33.79;101038.81;6083824;23;20033;-72
2022/07/19 07:49:38;;;;;;;6.10;5.80;;;;;;;28.90;33.45;101300.03;6107171;23;20035;-72
2022/07/19 07:52:06;;;;;;;6.35;5.85;;;;;;;28.82;33.31;101279.34;6094158;23;20375;-71
2022/07/19 07:54:34;;;;;;;6.22;5.90;;;;;;;29.17;33.21;101301.28;6107639;23;20266;-72
2022/07/19 07:57:02;;;;;;;6.20;5.90;;;;;;;29.15;33.31;101295.22;6076070;23;20591;-71
2022/07/19 07:59:28;;;;;;;8.13;7.63;;;;;;;29.32;32.78;101298.53;6104929;23;20028;-71
2022/07/19 08:01:55;;;;;;;5.88;5.57;;;;;;;29.37;32.79;101293.41;6080242;23;20467;-71
2022/07/19 08:04:25;;;;;;;7.93;7.53;;;;;;;29.40;33.04;101280.31;6093225;23;20033;-73
2022/07/19 08:06:52;;;;;;;5.88;5.57;;;;;;;29.58;32.87;101284.47;6081390;23;20085;-71
2022/07/19 08:09:18;;;;;;;7.07;6.78;;;;;;;29.70;32.82;101290.22;6091656;23;20236;-72
2022/07/19 08:11:45;;;;;;;6.15;5.85;;;;;;;29.53;32.41;101251.75;6076428;23;20085;-71
2022/07/19 08:14:11;;;;;;;5.93;5.63;;;;;;;29.85;32.63;101298.31;6105338;23;20084;-72
2022/07/19 08:16:38;;;;;;;5.93;5.63;;;;;;;28.82;31.10;101130.75;6077372;23;20022;-73
2022/07/19 08:19:04;;;;;;;6.38;5.85;;;;;;;30.04;30.87;101308.50;6112957;23;20024;-73
2022/07/19 08:21:31;;;;;;;5.95;5.65;;;;;;;30.12;30.58;101319.19;6072123;23;20264;-72
2022/07/19 08:23:58;;;;;;;5.80;5.50;;;;;;;30.35;31.60;101347.94;6100970;23;20022;-71
2022/07/19 08:26:24;;;;;;;7.55;7.15;;;;;;;30.31;30.70;101336.69;6077971;23;20036;-72
2022/07/19 08:28:50;;;;;;;5.60;5.35;;;;;;;30.44;30.70;101351.38;6107093;23;20072;-72
2022/07/19 08:31:17;;;;;;;6.10;5.80;;;;;;;29.66;30.55;101188.84;6084281;23;20130;-72
2022/07/19 08:33:44;;;;;;;6.07;5.78;;;;;;;30.99;31.75;101371.41;6106130;23;20013;-71
2022/07/19 08:36:10;;;;;;;5.47;5.28;;;;;;;30.08;30.18;101193.38;6077632;23;20433;-74
2022/07/19 08:38:38;;;;;;;6.20;5.90;;;;;;;31.18;29.37;101381.53;6105435;23;20233;-72
2022/07/19 08:41:05;;;;;;;5.90;5.60;;;;;;;30.38;30.08;101260.91;6074233;23;21407;-72
2022/07/19 08:43:33;;;;;;;6.20;5.90;;;;;;;30.27;29.76;101239.75;6098206;23;20114;-73
2022/07/19 08:46:03;;;;;;;6.25;5.95;;;;;;;31.58;28.14;101421.63;6083290;23;20547;-72
2022/07/19 08:48:35;;;;;;;6.35;6.05;;;;;;;30.23;28.29;101214.97;6099454;23;20375;-72
2022/07/19 08:51:12;;;;;;;6.13;5.82;;;;;;;31.66;27.89;101458.63;6069318;23;20223;-75
2022/07/19 08:53:42;;;;;;;6.00;5.60;;;;;;;31.86;28.69;101464.13;6111001;23;20029;-72
2022/07/19 08:58:54;;;;;;;5.93;5.63;;;;;;;30.85;28.29;101304.56;6102477;23;20009;-72
2022/07/19 09:01:20;;;;;;;6.93;6.63;;;;;;;30.91;27.70;101366.13;6093391;23;20594;-74
2022/07/19 09:04:06;;;;;;;6.35;6.05;;;;;;;32.10;27.66;101479.91;6117126;23;20430;-72
2022/07/19 09:06:46;;;;;;;6.57;6.28;;;;;;;32.27;27.64;101476.81;6081914;23;20458;-74
2022/07/19 09:09:24;;;;;;;6.05;5.75;;;;;;;31.99;27.64;101386.28;6118751;23;20376;-73
2022/07/19 09:11:52;;;;;;;5.90;5.60;;;;;;;32.61;27.79;101484.03;6093450;23;20349;-72
2022/07/19 09:14:27;;;;;;;6.35;5.97;;;;;;;32.08;27.28;101403.25;6118448;23;20005;-73
2022/07/19 09:17:12;;;;;;;6.47;5.88;;;;;;;32.78;27.70;101495.34;6096867;23;20029;-73
2022/07/19 09:19:41;;;;;;;5.85;5.55;;;;;;;32.59;27.25;101465.19;6125147;23;20088;-73
2022/07/19 09:22:13;;;;;;;5.85;5.55;;;;;;;32.94;26.27;101503.09;6089022;23;20034;-74
2022/07/19 09:24:45;;;;;;;5.82;5.53;;;;;;;33.15;25.89;101503.94;6120414;23;20009;-74
2022/07/19 09:27:20;;;;;;;6.63;5.97;;;;;;;33.16;26.69;101519.22;6095888;23;20032;-76
2022/07/19 09:29:47;;;;;;;5.80;5.40;;;;;;;33.52;27.19;101539.69;6123478;23;20044;-73
2022/07/19 09:32:17;;;;;;;6.78;6.40;;;;;;;33.56;25.98;101569.00;6094742;23;20088;-75
2022/07/19 09:35:03;;;;;;;6.93;6.63;;;;;;;33.18;25.42;101528.84;6108640;23;20323;-74
2022/07/19 09:37:32;;;;;;;6.97;6.57;;;;;;;33.40;25.71;101525.91;6102008;23;20034;-73
2022/07/19 09:40:01;;;;;;;6.15;5.85;;;;;;;33.68;24.26;101576.53;6106024;23;20065;-73
2022/07/19 09:42:39;;;;;;;7.45;7.05;;;;;;;33.82;24.95;101544.66;6066723;23;20018;-73
2022/07/19 09:45:07;;;;;;;6.13;5.75;;;;;;;33.92;24.76;101545.03;6118397;23;20081;-74
2022/07/19 09:47:40;;;;;;;6.10;5.80;;;;;;;33.10;25.78;101374.03;6097248;23;20021;-73
2022/07/19 09:50:10;;;;;;;6.10;5.80;;;;;;;34.21;25.35;101578.31;6121659;23;20055;-72
2022/07/19 09:52:38;;;;;;;6.13;5.82;;;;;;;33.39;24.72;101429.81;6093622;23;20050;-73
2022/07/19 09:55:13;;;;;;;5.95;5.65;;;;;;;34.37;24.71;101581.38;6126259;23;20032;-73
2022/07/19 09:57:51;;;;;;;6.07;5.78;;;;;;;33.36;24.03;101465.63;6094490;23;20439;-73
2022/07/19 10:00:21;;;;;;;6.75;6.45;;;;;;;33.36;23.03;101492.00;6123371;23;20025;-73
2022/07/19 10:02:50;;;;;;;5.82;5.53;;;;;;;34.34;24.11;101616.38;6094059;23;20021;-73
2022/07/19 10:05:18;;;;;;;7.05;6.75;;;;;;;34.50;24.43;101615.91;6120139;23;20029;-75
2022/07/19 10:07:45;;;;;;;6.15;5.65;;;;;;;34.12;23.16;101545.81;6097337;23;20014;-74
2022/07/19 10:10:13;;;;;;;5.93;5.63;;;;;;;34.11;22.74;101537.88;6133132;23;20248;-73
2022/07/19 10:12:43;;;;;;;6.60;6.30;;;;;;;34.95;23.81;101539.50;6069191;23;20014;-73
2022/07/19 10:15:15;;;;;;;6.10;5.80;;;;;;;35.07;23.35;101560.63;6112144;23;20446;-76
2022/07/19 10:17:58;;;;;;;6.15;5.85;;;;;;;35.11;21.98;101580.94;6079848;23;20042;-75
2022/07/19 10:20:27;;;;;;;7.28;6.78;;;;;;;35.38;22.77;101575.28;6101123;23;20053;-75
2022/07/19 10:22:57;;;;;;;5.78;5.47;;;;;;;35.09;21.86;101572.97;6081935;23;20014;-73
2022/07/19 10:25:24;;;;;;;7.40;6.97;;;;;;;35.21;21.87;101600.41;6111254;23;20059;-74
2022/07/19 10:27:54;;;;;;;5.82;5.53;;;;;;;34.04;22.29;101392.69;6091100;23;20077;-74
2022/07/19 10:30:39;;;;;;;6.97;6.68;;;;;;;35.29;21.31;101591.09;6116520;23;20029;-75
2022/07/19 10:33:29;;;;;;;5.80;5.50;;;;;;;34.78;21.86;101511.09;6092376;23;20482;-76
2022/07/19 10:35:57;;;;;;;5.50;5.30;;;;;;;35.49;21.74;101590.94;6121831;23;20082;-75
2022/07/19 10:38:23;;;;;;;6.68;6.38;;;;;;;34.85;21.39;101435.53;6084643;23;20028;-73
2022/07/19 10:40:58;;;;;;;5.82;5.45;;;;;;;35.11;21.44;101515.47;6111849;23;20080;-73
2022/07/19 10:43:25;;;;;;;7.03;6.72;;;;;;;35.62;20.85;101576.31;6070838;23;20033;-73
2022/07/19 10:45:59;;;;;;;6.07;5.68;;;;;;;35.75;21.00;101566.09;6112789;23;20108;-72
2022/07/19 10:48:45;;;;;;;6.90;6.60;;;;;;;35.67;20.75;101580.06;6072175;23;20100;-72
2022/07/19 10:51:33;;;;;;;6.32;6.00;;;;;;;35.71;21.35;101561.34;6102928;23;20188;-72
2022/07/19 10:54:05;;;;;;;5.72;5.45;;;;;;;36.04;21.16;101554.63;6076326;23;20012;-72
2022/07/19 10:56:34;;;;;;;;;;;;;;;36.23;20.52;101558.22;6107752;23;20015;-74
2022/07/19 10:59:11;;;;;;;6.00;5.70;;;;;;;36.25;21.46;101556.09;6073317;23;20117;-73
2022/07/19 11:01:52;;;;;;;5.80;5.50;;;;;;;36.11;20.84;101542.56;6106925;23;20089;-73
2022/07/19 11:04:28;;;;;;;7.25;6.85;;;;;;;35.84;20.76;101451.09;6071381;23;20349;-73
2022/07/19 11:07:17;;;;;;;5.55;5.25;;;;;;;35.73;19.32;101478.09;6111165;23;20018;-72
2022/07/19 11:09:56;;;;;;;6.57;6.10;;;;;;;36.23;20.99;101519.97;6088149;23;20016;-73
2022/07/19 11:12:25;;;;;;;7.28;6.97;;;;;;;36.30;20.04;101523.44;6112496;23;20025;-74
2022/07/19 11:14:52;;;;;;;5.80;5.50;;;;;;;36.40;19.84;101520.13;6094474;23;20100;-74
2022/07/19 11:17:38;;;;;;;5.90;5.60;;;;;;;36.41;19.71;101484.38;6123777;23;20037;-73
2022/07/19 11:20:10;;;;;;;5.90;5.60;;;;;;;35.61;18.29;101373.41;6100757;23;20013;-74
2022/07/19 11:22:40;;;;;;;5.50;5.30;;;;;;;36.40;18.08;101506.47;6114562;23;20088;-73
2022/07/19 11:25:09;;;;;;;5.40;5.20;;;;;;;36.17;18.06;101499.03;6078971;23;20073;-73
2022/07/19 11:27:36;;;;;;;5.95;5.65;;;;;;;36.45;17.74;101493.78;6105372;23;20051;-73
2022/07/19 11:30:05;;;;;;;5.75;5.43;;;;;;;35.51;18.33;101333.00;6111110;23;20074;-74
2022/07/19 11:32:32;;;;;;;6.25;5.95;;;;;;;35.47;18.20;101334.53;6127491;23;20034;-73
2022/07/19 11:35:03;;;;;;;5.85;5.55;;;;;;;36.68;18.40;101468.38;6096180;23;20034;-74